logo
Search for airport 
image banner adimage banner adimage banner ad
image banner ad

KCZT - Dimmit County

Located in Carrizo Springs, United States

ICAO - CZT, IATA - CZT

Data provided by Airmate  

General information

Coordinates: N28°31'20" W99°49'25"
Elevation is 598 feet MSL.
Magnetic variation is 07° East
View others Airports in Texas

Operational data

Special qualification required
Current time UTC:
Current local time:
Weather
METAR: KCZT 180115Z AUTO 00000KT 10SM CLR 28/17 A2977 RMK AO2 LTG DSNT NW
View NOTAMs / SUP AIP / TFR affecting this airport [VIEW]
Communications frequencies: [VIEW]

Runways:

RWY identifierQFULength (ft)Width (ft)SurfaceLDA (ft)
13134°500375ASPH
31314°500375ASPH

Airport contact information

Address: Carrizo Springs United States

Satellite view of KCZT